Time;durP1;ratioP1;P1;durP2;ratioP2;P2;SDS_P1;SDS_P2;PMS_P1;PMS_P2;Temp;Humidity;BMP_temperature;BMP_pressure;BME280_temperature;BME280_humidity;BME280_pressure;Samples;Min_cycle;Max_cycle;Signal;HPM_P1;HPM_P2
2021/05/11 00:01:05;;;;;;;18.20;13.98;;;12.70;48.00;;;;;;5023575;28;20433;-64
2021/05/11 00:03:52;;;;;;;22.77;16.70;;;12.70;47.70;;;;;;5022556;28;20064;-64
2021/05/11 00:06:40;;;;;;;18.73;14.52;;;12.70;46.60;;;;;;5026361;28;20049;-64
2021/05/11 00:09:27;;;;;;;21.42;15.55;;;12.50;47.60;;;;;;5023513;28;20053;-63
2021/05/11 00:12:14;;;;;;;18.80;13.82;;;12.60;49.00;;;;;;5024413;28;20237;-64
2021/05/11 00:15:04;;;;;;;17.55;13.85;;;12.60;47.70;;;;;;5020288;28;20427;-63
2021/05/11 00:17:51;;;;;;;17.67;13.60;;;12.50;49.50;;;;;;5024489;28;20045;-63
2021/05/11 00:20:39;;;;;;;20.25;15.57;;;12.40;50.40;;;;;;5030874;28;20053;-64
2021/05/11 00:23:26;;;;;;;19.30;14.90;;;12.40;50.40;;;;;;5026964;28;20044;-64
2021/05/11 00:26:13;;;;;;;20.80;16.15;;;12.50;50.40;;;;;;5018682;28;20364;-63
2021/05/11 00:29:00;;;;;;;21.95;15.57;;;12.50;48.60;;;;;;5025637;28;20497;-64
2021/05/11 00:31:48;;;;;;;20.33;14.98;;;12.40;50.30;;;;;;5030789;28;20509;-64
2021/05/11 00:34:36;;;;;;;20.42;15.00;;;12.40;51.10;;;;;;5022688;28;20053;-64
2021/05/11 00:37:23;;;;;;;23.75;16.58;;;12.40;51.20;;;;;;5023154;28;20041;-64
2021/05/11 00:40:11;;;;;;;23.48;16.23;;;12.30;51.10;;;;;;5022710;28;20075;-64
2021/05/11 00:42:59;;;;;;;24.17;16.95;;;12.40;52.00;;;;;;5022532;28;20557;-64
2021/05/11 00:45:46;;;;;;;22.00;16.15;;;12.40;51.90;;;;;;5021201;28;20046;-65
2021/05/11 00:48:34;;;;;;;25.80;17.27;;;12.50;50.90;;;;;;5025017;28;20493;-64
2021/05/11 00:51:21;;;;;;;25.48;17.58;;;12.40;51.20;;;;;;5025547;28;20497;-64
2021/05/11 00:54:09;;;;;;;24.35;17.20;;;12.50;51.90;;;;;;5022388;28;20531;-63
2021/05/11 00:56:57;;;;;;;27.40;17.73;;;12.30;53.60;;;;;;5025333;28;20050;-64
2021/05/11 00:59:44;;;;;;;27.90;17.75;;;12.40;53.80;;;;;;5023898;28;20046;-63
2021/05/11 01:02:32;;;;;;;26.92;18.00;;;12.30;53.70;;;;;;5024400;28;20507;-64
2021/05/11 01:05:21;;;;;;;26.50;17.50;;;12.30;53.70;;;;;;5020905;28;20052;-64
2021/05/11 01:08:09;;;;;;;26.35;18.70;;;12.30;53.70;;;;;;5023868;28;20068;-65
2021/05/11 01:10:57;;;;;;;28.63;17.90;;;12.40;54.10;;;;;;5026351;28;20052;-65
2021/05/11 01:13:44;;;;;;;26.23;16.60;;;12.50;53.40;;;;;;5028576;28;20067;-65
2021/05/11 01:16:32;;;;;;;24.45;16.10;;;12.50;52.60;;;;;;5031138;28;20084;-64
2021/05/11 01:19:23;;;;;;;26.27;16.83;;;12.50;51.70;;;;;;4936708;28;20110;-64
2021/05/11 01:22:47;;;;;;;26.33;17.60;;;12.50;50.90;;;;;;5005433;28;20055;-65
2021/05/11 01:25:35;;;;;;;25.43;16.17;;;12.50;53.90;;;;;;4986760;28;102294;-65
2021/05/11 01:28:26;;;;;;;25.00;16.15;;;12.50;51.90;;;;;;5003312;28;20515;-65
2021/05/11 01:44:02;;;;;;;30.48;17.42;;;12.30;53.30;;;;;;4911683;27;71574;-65
2021/05/11 01:47:17;;;;;;;26.02;16.83;;;12.30;55.40;;;;;;5046210;28;20409;-65
2021/05/11 01:50:14;;;;;;;26.80;17.52;;;12.50;54.70;;;;;;5038994;28;20454;-65
2021/05/11 01:54:35;;;;;;;25.08;16.60;;;12.40;52.20;;;;;;5085555;27;78424;-65
2021/05/11 01:57:53;;;;;;;26.25;16.65;;;12.50;53.20;;;;;;5116924;28;20047;-65
2021/05/11 02:22:44;;;;;;;26.02;16.50;;;12.50;54.00;;;;;;5112723;28;20444;-65
2021/05/11 02:25:32;;;;;;;27.08;17.08;;;12.50;52.00;;;;;;5110939;28;20043;-65
2021/05/11 02:28:20;;;;;;;27.58;17.38;;;12.30;53.70;;;;;;5109900;28;20071;-65
2021/05/11 02:31:07;;;;;;;28.15;16.33;;;12.40;54.20;;;;;;5111390;28;20073;-65
2021/05/11 02:33:55;;;;;;;30.90;17.50;;;12.20;54.80;;;;;;5111798;28;20061;-65
2021/05/11 02:36:42;;;;;;;30.75;17.88;;;12.20;56.10;;;;;;5111363;28;20040;-66
2021/05/11 02:39:30;;;;;;;33.30;19.52;;;12.20;56.30;;;;;;5109727;28;20418;-66
2021/05/11 02:42:18;;;;;;;33.13;18.35;;;12.10;56.30;;;;;;5114981;28;20043;-66
2021/05/11 02:45:09;;;;;;;37.75;20.85;;;12.20;56.90;;;;;;5105043;28;20058;-66
2021/05/11 02:47:57;;;;;;;36.20;18.80;;;12.20;58.10;;;;;;5112692;28;20055;-66
2021/05/11 02:50:45;;;;;;;34.78;19.67;;;12.10;57.90;;;;;;5112150;28;20040;-66
2021/05/11 02:53:32;;;;;;;32.85;17.98;;;12.10;58.70;;;;;;5107622;28;20083;-66
2021/05/11 02:56:19;;;;;;;33.83;19.20;;;12.10;58.70;;;;;;5112710;28;20060;-65
2021/05/11 02:59:08;;;;;;;33.95;18.80;;;12.10;58.70;;;;;;5110851;28;20180;-65
2021/05/11 03:01:55;;;;;;;33.33;18.42;;;12.10;59.00;;;;;;5107181;28;20135;-64
2021/05/11 03:04:42;;;;;;;36.78;20.00;;;12.00;59.20;;;;;;5099932;28;20052;-64
2021/05/11 03:07:30;;;;;;;35.70;19.02;;;12.00;59.80;;;;;;5100327;28;20118;-66
2021/05/11 03:10:18;;;;;;;32.47;18.30;;;12.00;60.40;;;;;;5103431;28;20449;-65
2021/05/11 03:13:06;;;;;;;41.58;19.90;;;12.00;60.40;;;;;;5093608;28;20052;-65
2021/05/11 03:15:54;;;;;;;34.22;17.98;;;12.10;60.50;;;;;;5092015;28;20059;-65
2021/05/11 03:18:43;;;;;;;31.58;17.08;;;12.00;60.10;;;;;;5099428;28;20124;-65
2021/05/11 03:21:31;;;;;;;31.33;17.98;;;12.00;60.50;;;;;;5101448;28;20039;-65
2021/05/11 03:24:23;;;;;;;33.17;18.15;;;12.00;60.50;;;;;;5095345;28;20031;-66
2021/05/11 03:27:12;;;;;;;33.58;18.30;;;12.00;60.70;;;;;;5094021;28;20461;-65
2021/05/11 03:29:59;;;;;;;35.55;19.33;;;12.00;61.00;;;;;;5098863;28;20122;-66
2021/05/11 03:32:48;;;;;;;32.50;18.25;;;12.00;60.60;;;;;;5093392;28;20051;-66
2021/05/11 03:35:36;;;;;;;35.67;20.67;;;11.90;60.30;;;;;;5091186;28;20167;-65
2021/05/11 03:38:23;;;;;;;45.22;20.00;;;12.00;61.00;;;;;;5094296;28;20043;-66
2021/05/11 03:41:13;;;;;;;38.08;19.73;;;12.00;61.00;;;;;;5095667;28;20043;-66
2021/05/11 03:44:05;;;;;;;36.15;19.05;;;11.90;61.60;;;;;;5095117;28;20114;-66
2021/05/11 03:46:51;;;;;;;36.00;19.10;;;11.90;61.90;;;;;;5094128;28;20043;-65
2021/05/11 03:49:40;;;;;;;38.17;21.15;;;11.90;61.90;;;;;;5096109;28;20047;-66
2021/05/11 03:52:28;;;;;;;40.75;20.50;;;11.90;62.50;;;;;;5096700;27;20044;-66
2021/05/11 03:55:16;;;;;;;38.97;21.30;;;11.90;62.10;;;;;;5096971;28;20051;-66
2021/05/11 03:58:04;;;;;;;34.85;19.77;;;11.90;62.50;;;;;;5096790;28;20090;-66
2021/05/11 04:00:52;;;;;;;44.08;21.70;;;11.90;62.20;;;;;;5095670;28;20419;-65
2021/05/11 04:03:40;;;;;;;37.08;19.77;;;12.00;62.50;;;;;;5100656;28;20064;-66
2021/05/11 04:06:29;;;;;;;39.47;20.50;;;12.10;62.30;;;;;;5097151;28;20052;-66
2021/05/11 04:09:22;;;;;;;35.70;19.58;;;12.10;61.70;;;;;;5094538;28;20044;-65
2021/05/11 04:18:21;;;;;;;32.25;18.38;;;12.30;57.90;;;;;;5099177;28;20122;-66
2021/05/11 04:21:09;;;;;;;36.22;18.85;;;12.40;57.10;;;;;;5099191;28;20789;-65
2021/05/11 04:23:58;;;;;;;31.45;18.50;;;12.50;55.90;;;;;;5095692;28;20048;-65
2021/05/11 04:26:45;;;;;;;35.38;19.55;;;12.50;55.80;;;;;;5097667;28;20055;-66
2021/05/11 04:29:35;;;;;;;34.50;18.90;;;12.50;55.70;;;;;;5096417;28;20506;-66
2021/05/11 04:32:22;;;;;;;33.55;17.67;;;12.50;55.10;;;;;;5090470;28;20079;-65
2021/05/11 04:35:12;;;;;;;29.55;16.13;;;12.50;54.20;;;;;;5096411;28;20177;-65
2021/05/11 04:37:59;;;;;;;29.33;16.40;;;12.50;54.70;;;;;;5091332;28;20130;-65
2021/05/11 04:40:48;;;;;;;29.88;16.75;;;12.50;54.60;;;;;;5096893;28;20059;-66
2021/05/11 04:43:37;;;;;;;28.48;16.33;;;12.50;54.70;;;;;;5096835;28;20071;-66
2021/05/11 04:46:27;;;;;;;29.92;16.67;;;12.70;53.00;;;;;;5092007;28;20129;-65
2021/05/11 04:49:15;;;;;;;29.73;16.52;;;12.60;52.50;;;;;;5093763;28;20067;-65
2021/05/11 04:52:05;;;;;;;27.88;16.75;;;12.50;52.90;;;;;;5092134;28;20422;-65
2021/05/11 04:54:55;;;;;;;26.50;15.98;;;12.50;53.00;;;;;;5096122;28;20035;-66
2021/05/11 04:57:44;;;;;;;25.13;15.38;;;12.60;51.70;;;;;;5099210;28;20054;-65
2021/05/11 05:00:32;;;;;;;26.90;15.13;;;12.60;52.00;;;;;;5096146;28;20657;-65
2021/05/11 05:03:25;;;;;;;26.63;16.42;;;12.70;52.80;;;;;;5099196;28;20564;-66
2021/05/11 05:06:14;;;;;;;28.52;15.63;;;12.70;50.80;;;;;;5090634;28;20245;-65
2021/05/11 05:09:01;;;;;;;28.05;16.13;;;12.70;50.80;;;;;;5094241;28;20121;-66
2021/05/11 05:11:49;;;;;;;21.77;13.80;;;12.60;53.20;;;;;;5093640;28;20055;-65
2021/05/11 05:14:38;;;;;;;26.50;14.20;;;12.80;52.20;;;;;;5091558;28;20137;-66
2021/05/11 05:17:27;;;;;;;22.33;14.07;;;12.90;48.80;;;;;;5093880;28;20054;-66
2021/05/11 05:20:15;;;;;;;22.60;13.75;;;12.80;48.00;;;;;;5095459;28;20058;-66
2021/05/11 05:23:03;;;;;;;23.30;14.02;;;12.80;47.30;;;;;;5093445;28;20627;-65
2021/05/11 05:25:56;;;;;;;24.00;14.30;;;12.80;49.60;;;;;;5096911;28;20040;-64
2021/05/11 05:28:43;;;;;;;23.30;14.27;;;12.90;48.00;;;;;;5097441;28;20093;-64
2021/05/11 05:31:32;;;;;;;23.70;14.27;;;12.90;48.00;;;;;;5098033;28;20165;-65
2021/05/11 05:34:20;;;;;;;21.70;13.27;;;12.90;48.00;;;;;;5090466;28;20101;-66
2021/05/11 05:37:09;;;;;;;20.95;12.95;;;13.00;46.70;;;;;;5098793;28;20043;-65
2021/05/11 05:39:58;;;;;;;21.83;13.52;;;12.90;47.40;;;;;;5094058;28;20048;-66
2021/05/11 05:42:48;;;;;;;26.55;13.90;;;12.90;49.50;;;;;;5044096;27;20531;-65
2021/05/11 05:45:35;;;;;;;19.80;12.40;;;12.90;48.00;;;;;;5090452;28;20089;-65
2021/05/11 05:48:24;;;;;;;21.45;13.32;;;12.90;48.00;;;;;;5094643;28;20051;-65
2021/05/11 05:51:14;;;;;;;19.63;12.77;;;12.90;48.00;;;;;;5097218;28;20077;-65
2021/05/11 05:54:02;;;;;;;20.23;12.70;;;13.00;48.00;;;;;;5092635;28;20427;-65
2021/05/11 05:56:49;;;;;;;18.90;12.35;;;13.00;46.80;;;;;;5095635;28;20453;-63
2021/05/11 05:59:40;;;;;;;17.80;10.55;;;13.00;48.10;;;;;;5098874;28;20058;-63
2021/05/11 06:02:28;;;;;;;19.40;12.13;;;13.00;43.50;;;;;;5090243;28;20387;-64
2021/05/11 06:05:17;;;;;;;20.17;12.43;;;13.00;44.90;;;;;;5089825;28;20393;-64
2021/05/11 06:08:05;;;;;;;18.65;11.68;;;13.10;45.80;;;;;;5094424;28;20177;-64
2021/05/11 06:10:57;;;;;;;21.02;11.20;;;13.10;43.60;;;;;;5099766;28;20032;-65
2021/05/11 06:13:52;;;;;;;15.27;10.18;;;13.30;43.00;;;;;;5093310;28;20040;-64
2021/05/11 06:19:48;;;;;;;18.73;11.25;;;13.10;42.80;;;;;;5093366;28;20052;-64
2021/05/11 06:22:37;;;;;;;18.70;11.15;;;13.10;42.90;;;;;;5096050;28;20128;-65
2021/05/11 06:25:25;;;;;;;18.10;11.25;;;13.00;43.40;;;;;;5088206;28;20075;-65
2021/05/11 06:28:13;;;;;;;19.42;11.63;;;13.00;42.80;;;;;;5094914;28;20096;-65
2021/05/11 06:31:01;;;;;;;17.08;11.13;;;13.20;42.00;;;;;;5092449;28;20055;-65
2021/05/11 06:33:49;;;;;;;18.10;11.35;;;13.30;41.90;;;;;;5092067;28;21246;-65
2021/05/11 06:36:37;;;;;;;17.55;11.13;;;13.30;40.30;;;;;;5094246;28;20145;-66
2021/05/11 06:39:26;;;;;;;15.45;10.35;;;13.50;39.20;;;;;;5093262;28;20125;-65
2021/05/11 06:42:13;;;;;;;15.85;11.35;;;13.30;39.80;;;;;;5099136;28;20059;-65
2021/05/11 06:45:08;;;;;;;16.00;10.48;;;13.30;40.00;;;;;;5095593;28;20044;-65
2021/05/11 06:48:04;;;;;;;18.05;11.80;;;13.50;40.10;;;;;;5091745;28;20051;-65
2021/05/11 06:53:58;;;;;;;17.83;12.02;;;13.70;35.90;;;;;;5096026;28;20046;-64
2021/05/11 06:56:47;;;;;;;16.33;10.95;;;13.80;35.30;;;;;;5096983;28;20054;-64
2021/05/11 06:59:36;;;;;;;17.38;11.25;;;13.60;34.80;;;;;;5100945;27;20051;-65
2021/05/11 07:02:24;;;;;;;16.10;10.68;;;13.60;36.10;;;;;;5094640;28;20047;-65
2021/05/11 07:05:13;;;;;;;12.35;9.48;;;13.80;35.80;;;;;;5097144;28;20040;-65
2021/05/11 07:08:09;;;;;;;16.35;9.30;;;13.70;33.30;;;;;;5102635;28;20406;-63
2021/05/11 07:10:59;;;;;;;12.45;8.65;;;13.70;35.00;;;;;;5098949;28;20134;-64
2021/05/11 07:13:48;;;;;;;13.63;9.15;;;13.80;32.80;;;;;;5096756;28;20460;-65
2021/05/11 07:16:37;;;;;;;12.35;8.82;;;13.80;33.30;;;;;;5094298;28;20499;-66
2021/05/11 07:19:25;;;;;;;11.30;8.32;;;14.00;31.00;;;;;;5099796;28;20185;-65
2021/05/11 07:22:13;;;;;;;10.32;7.35;;;13.80;31.80;;;;;;5103211;28;20097;-65
2021/05/11 07:25:06;;;;;;;12.70;8.45;;;13.90;31.20;;;;;;5099821;28;20044;-65
2021/05/11 07:31:09;;;;;;;12.95;7.45;;;13.90;32.40;;;;;;5100889;28;20558;-66
2021/05/11 07:33:58;;;;;;;11.38;7.85;;;13.90;31.20;;;;;;5101803;28;20435;-66
2021/05/11 07:36:46;;;;;;;12.00;7.22;;;13.90;31.30;;;;;;5099568;28;20086;-65
2021/05/11 07:39:35;;;;;;;8.88;7.18;;;14.20;28.80;;;;;;5100754;28;20138;-65
2021/05/11 07:42:23;;;;;;;8.90;7.03;;;14.30;27.70;;;;;;5101075;28;20052;-66
2021/05/11 07:45:18;;;;;;;9.55;6.93;;;14.20;28.40;;;;;;5097954;28;20122;-66
2021/05/11 07:48:16;;;;;;;9.25;6.85;;;14.30;27.70;;;;;;5099600;28;20140;-66
2021/05/11 08:04:03;;;;;;;9.57;6.18;;;14.40;26.60;;;;;;5104224;28;20051;-65
2021/05/11 08:10:16;;;;;;;10.68;8.13;;;14.40;26.00;;;;;;5084157;28;20057;-66
2021/05/11 08:16:12;;;;;;;8.27;5.45;;;14.60;24.80;;;;;;5099671;28;20442;-65
2021/05/11 08:19:06;;;;;;;5.97;5.28;;;14.60;26.20;;;;;;5100101;28;20063;-65
2021/05/11 08:22:17;;;;;;;7.28;5.32;;;14.40;25.10;;;;;;5102114;28;20480;-65
2021/05/11 08:28:12;;;;;;;5.20;4.32;;;14.60;22.80;;;;;;5098051;28;20082;-66
2021/05/11 08:30:59;;;;;;;5.18;4.30;;;14.60;21.70;;;;;;5097796;28;20122;-65
2021/05/11 08:33:47;;;;;;;6.20;3.90;;;14.90;21.30;;;;;;5097510;28;20112;-65
2021/05/11 08:36:36;;;;;;;6.32;4.30;;;15.00;18.20;;;;;;5099230;28;20415;-65
2021/05/11 08:39:24;;;;;;;7.82;4.90;;;14.80;16.40;;;;;;5100811;28;20581;-65
2021/05/11 08:42:13;;;;;;;5.10;4.50;;;15.10;16.00;;;;;;5099545;28;20075;-65
2021/05/11 08:45:04;;;;;;;6.97;6.28;;;15.20;15.00;;;;;;5101167;28;20071;-65
2021/05/11 08:47:52;;;;;;;7.43;6.70;;;15.00;14.90;;;;;;5101801;28;20051;-66
2021/05/11 08:50:42;;;;;;;7.65;4.35;;;15.10;17.20;;;;;;5099681;28;20112;-66
2021/05/11 08:53:57;;;;;;;5.75;4.65;;;14.80;17.40;;;;;;5099280;28;20117;-65
2021/05/11 09:04:34;;;;;;;5.22;4.28;;;15.10;16.20;;;;;;5099440;28;20048;-65
2021/05/11 09:06:46;;;;;;;9.90;4.95;;;15.60;13.10;;;;;;5098164;28;20067;-66
2021/05/11 09:09:47;;;;;;;7.40;4.60;;;15.00;14.80;;;;;;5100150;28;20047;-65
2021/05/11 09:25:20;;;;;;;6.47;5.10;;;15.50;11.00;;;;;;5099100;28;20040;-65
2021/05/11 09:28:38;;;;;;;6.13;4.88;;;15.50;11.70;;;;;;5100239;28;20512;-66
2021/05/11 09:31:37;;;;;;;5.40;4.82;;;15.70;11.60;;;;;;5093323;28;20054;-66
2021/05/11 09:34:32;;;;;;;5.82;5.18;;;15.50;11.90;;;;;;5096355;28;20407;-65
2021/05/11 10:44:16;;;;;;;7.50;5.97;;;16.10;9.20;;;;;;5099662;28;20043;-65
2021/05/11 10:47:04;;;;;;;6.75;5.35;;;16.50;7.60;;;;;;5101078;28;20526;-65
2021/05/11 10:49:52;;;;;;;6.93;6.03;;;16.20;7.80;;;;;;5098438;28;20418;-65
2021/05/11 10:52:45;;;;;;;7.00;6.30;;;16.40;7.70;;;;;;5104064;28;20043;-66
2021/05/11 10:55:39;;;;;;;9.95;8.13;;;16.40;7.80;;;;;;5084616;28;20067;-65
2021/05/11 10:59:20;;;;;;;9.50;7.65;;;16.10;8.20;;;;;;5102812;28;20642;-65
2021/05/11 11:02:35;;;;;;;9.98;8.57;;;16.30;7.30;;;;;;5098680;28;20071;-65
2021/05/11 11:05:42;;;;;;;13.52;9.00;;;16.40;7.70;;;;;;5100146;28;20415;-65
2021/05/11 11:08:33;;;;;;;9.35;8.23;;;16.10;8.10;;;;;;5102853;28;20500;-65
2021/05/11 11:11:21;;;;;;;11.27;8.75;;;16.10;8.20;;;;;;5103460;28;20039;-65
2021/05/11 11:14:09;;;;;;;10.13;8.88;;;16.30;7.10;;;;;;5095571;28;20074;-64
2021/05/11 11:17:07;;;;;;;11.55;9.30;;;16.20;6.90;;;;;;5102661;28;20074;-65
2021/05/11 11:20:00;;;;;;;12.27;10.98;;;16.50;7.20;;;;;;5100033;28;20118;-65
2021/05/11 11:26:09;;;;;;;13.10;11.80;;;16.40;7.30;;;;;;5099060;28;20201;-66
2021/05/11 11:29:02;;;;;;;12.43;11.13;;;16.30;7.60;;;;;;5102233;28;20048;-66
2021/05/11 11:31:50;;;;;;;13.25;11.52;;;16.50;7.20;;;;;;5101541;28;20059;-65
2021/05/11 11:34:40;;;;;;;11.07;9.98;;;16.40;6.50;;;;;;5098811;28;20047;-66
2021/05/11 11:37:29;;;;;;;11.63;10.30;;;16.60;5.50;;;;;;5097439;28;20050;-65
2021/05/11 11:40:17;;;;;;;11.48;9.32;;;16.40;6.00;;;;;;5098630;28;20131;-66
2021/05/11 11:43:06;;;;;;;10.98;9.15;;;16.90;5.20;;;;;;5099396;28;20048;-66
2021/05/11 11:45:54;;;;;;;7.72;6.97;;;16.80;4.90;;;;;;5098758;28;20039;-65
2021/05/11 11:48:55;;;;;;;7.47;6.65;;;16.90;3.30;;;;;;5102122;28;20061;-66
2021/05/11 11:51:43;;;;;;;6.90;6.15;;;16.80;3.70;;;;;;5100291;28;20123;-65
2021/05/11 11:54:36;;;;;;;8.70;6.07;;;17.30;2.70;;;;;;5094595;28;20182;-66
2021/05/11 12:00:32;;;;;;;5.80;5.30;;;17.00;4.30;;;;;;5095874;28;20055;-66
2021/05/11 12:03:22;;;;;;;5.47;4.97;;;17.10;5.30;;;;;;5100651;28;20051;-65
2021/05/11 12:06:16;;;;;;;5.50;5.03;;;17.10;4.70;;;;;;5098247;28;20068;-63
2021/05/11 12:09:04;;;;;;;5.55;4.60;;;17.40;3.60;;;;;;5094541;28;20039;-65
2021/05/11 12:11:52;;;;;;;5.80;5.20;;;17.00;2.80;;;;;;5099017;28;20044;-65
2021/05/11 12:14:42;;;;;;;6.28;5.75;;;16.80;3.00;;;;;;5100035;28;20436;-66
2021/05/11 12:17:31;;;;;;;9.50;8.60;;;17.00;4.00;;;;;;5104961;28;20513;-65
2021/05/11 12:20:24;;;;;;;8.93;8.00;;;16.90;5.00;;;;;;5098914;28;20052;-65
2021/05/11 12:23:14;;;;;;;7.88;7.22;;;17.10;5.20;;;;;;5102140;28;20070;-65
2021/05/11 12:26:05;;;;;;;8.07;7.38;;;17.50;2.70;;;;;;5099531;28;20067;-65
2021/05/11 12:29:05;;;;;;;8.15;7.43;;;17.00;3.70;;;;;;5092339;28;20424;-66
2021/05/11 12:31:55;;;;;;;9.85;8.43;;;17.30;2.70;;;;;;5096855;28;20044;-66
2021/05/11 12:34:44;;;;;;;10.40;9.45;;;17.10;4.30;;;;;;5098246;28;20046;-65
2021/05/11 12:37:49;;;;;;;10.80;9.50;;;17.10;4.10;;;;;;5100155;28;20236;-65
2021/05/11 12:40:49;;;;;;;10.25;9.27;;;16.90;4.60;;;;;;5099593;28;20060;-65
2021/05/11 12:43:44;;;;;;;11.00;9.75;;;17.10;4.30;;;;;;5101058;28;20073;-66
2021/05/11 12:46:36;;;;;;;;;;;16.60;4.20;;;;;;5101326;28;20136;-66
2021/05/11 12:49:24;;;;;;;12.55;11.25;;;16.80;4.50;;;;;;5096365;28;20272;-65
2021/05/11 12:52:12;;;;;;;15.50;14.00;;;16.50;5.50;;;;;;5093818;28;20121;-65
2021/05/11 12:55:04;;;;;;;17.38;13.77;;;16.60;5.50;;;;;;5100205;28;20040;-64
2021/05/11 12:57:57;;;;;;;15.20;13.13;;;16.50;6.20;;;;;;5095748;28;20155;-65
2021/05/11 13:00:48;;;;;;;13.77;11.77;;;16.50;7.10;;;;;;5098045;28;20054;-66
2021/05/11 13:03:48;;;;;;;12.88;11.57;;;16.50;7.20;;;;;;5096449;28;20124;-65
2021/05/11 13:16:15;;;;;;;10.20;7.68;;;16.30;12.50;;;;;;5100058;28;20039;-64
2021/05/11 13:22:26;;;;;;;7.55;6.40;;;15.90;14.50;;;;;;5084879;28;20043;-65
2021/05/11 13:28:23;;;;;;;6.70;5.93;;;15.30;16.80;;;;;;5082024;28;20442;-64
2021/05/11 13:31:20;;;;;;;5.80;5.30;;;15.20;18.60;;;;;;5100323;28;20093;-65
2021/05/11 13:34:10;;;;;;;7.13;5.70;;;15.20;17.80;;;;;;5101758;28;20058;-66
2021/05/11 13:36:58;;;;;;;8.13;5.28;;;15.10;17.30;;;;;;5097637;28;20484;-65
2021/05/11 13:39:46;;;;;;;6.13;5.22;;;15.30;17.00;;;;;;5080710;28;20369;-67
2021/05/11 13:42:34;;;;;;;7.13;5.75;;;15.00;18.30;;;;;;5095282;28;20101;-66
2021/05/11 13:45:24;;;;;;;6.10;5.50;;;15.10;18.50;;;;;;5100035;28;20048;-65
2021/05/11 13:48:19;;;;;;;5.82;5.07;;;15.10;18.60;;;;;;5100084;28;20047;-64
2021/05/11 13:51:14;;;;;;;5.40;4.65;;;15.20;18.00;;;;;;5099613;28;21423;-64
2021/05/11 13:54:04;;;;;;;5.07;3.83;;;15.00;18.30;;;;;;5084250;28;20043;-64
2021/05/11 13:57:01;;;;;;;4.13;3.65;;;15.00;19.20;;;;;;5096555;28;20055;-65
2021/05/11 14:03:00;;;;;;;2.92;2.05;;;14.80;19.40;;;;;;5096271;28;20124;-64
2021/05/11 14:05:49;;;;;;;2.47;2.00;;;14.90;19.20;;;;;;5100910;28;20036;-65
2021/05/11 14:08:37;;;;;;;2.33;1.77;;;14.90;18.40;;;;;;5101238;28;20383;-64
2021/05/11 14:11:25;;;;;;;3.45;1.58;;;14.90;19.70;;;;;;5095517;28;20126;-64
2021/05/11 14:14:14;;;;;;;3.10;1.90;;;14.80;20.60;;;;;;5095026;28;20044;-65
2021/05/11 14:17:02;;;;;;;2.15;1.83;;;14.70;21.30;;;;;;5095643;28;20071;-64
2021/05/11 14:19:52;;;;;;;3.58;1.73;;;14.40;21.60;;;;;;5085291;28;20160;-63
2021/05/11 14:22:40;;;;;;;2.40;1.70;;;14.30;22.60;;;;;;5098690;28;20051;-63
2021/05/11 14:25:31;;;;;;;3.53;1.90;;;14.40;24.00;;;;;;5098267;28;20392;-64
2021/05/11 14:28:19;;;;;;;2.15;1.80;;;14.40;25.50;;;;;;5099499;28;20040;-64
2021/05/11 14:31:07;;;;;;;2.03;1.50;;;14.50;27.40;;;;;;5099327;28;20181;-64
2021/05/11 14:33:56;;;;;;;1.80;1.70;;;14.50;27.30;;;;;;5080866;28;20081;-64
2021/05/11 14:36:44;;;;;;;5.80;1.77;;;14.40;28.40;;;;;;5109765;28;20117;-64
2021/05/11 14:39:34;;;;;;;2.92;1.45;;;14.40;29.70;;;;;;5097146;28;20452;-64
2021/05/11 14:42:22;;;;;;;4.38;1.98;;;14.30;32.90;;;;;;5097572;28;20127;-64
2021/05/11 14:45:11;;;;;;;3.65;1.85;;;14.30;34.80;;;;;;5097760;28;20480;-63
2021/05/11 14:47:59;;;;;;;2.63;1.50;;;14.30;40.00;;;;;;5093735;28;20067;-63
2021/05/11 14:50:48;;;;;;;2.55;1.83;;;14.20;35.20;;;;;;5086754;28;20483;-63
2021/05/11 14:53:37;;;;;;;2.10;1.80;;;14.00;38.50;;;;;;5093099;28;20052;-63
2021/05/11 14:56:26;;;;;;;2.35;1.80;;;13.90;41.20;;;;;;5095749;28;20040;-63
2021/05/11 14:59:15;;;;;;;4.60;1.83;;;14.00;41.10;;;;;;5099217;28;20058;-63
2021/05/11 15:02:04;;;;;;;2.63;1.80;;;14.10;42.50;;;;;;5099990;28;20120;-64
2021/05/11 15:04:53;;;;;;;4.93;1.48;;;14.00;41.70;;;;;;5100242;28;20047;-64
2021/05/11 15:07:41;;;;;;;1.67;1.48;;;14.00;43.60;;;;;;5099290;28;20043;-63
2021/05/11 15:10:29;;;;;;;5.47;1.92;;;14.10;44.60;;;;;;5102263;28;20055;-64
2021/05/11 15:13:19;;;;;;;4.50;1.63;;;13.80;41.60;;;;;;5096526;28;20040;-64
2021/05/11 15:16:10;;;;;;;1.50;1.10;;;13.70;43.80;;;;;;5091747;28;20124;-64
2021/05/11 15:18:59;;;;;;;2.03;1.27;;;13.50;43.80;;;;;;5091158;28;20324;-63
2021/05/11 15:21:47;;;;;;;2.10;1.40;;;13.70;48.80;;;;;;5098655;28;20048;-64
2021/05/11 15:24:35;;;;;;;2.38;1.52;;;13.60;48.60;;;;;;5100569;28;20055;-63
2021/05/11 15:27:23;;;;;;;4.80;2.08;;;13.70;48.30;;;;;;5096331;28;20040;-63
2021/05/11 15:30:13;;;;;;;3.45;2.03;;;13.90;50.50;;;;;;5097595;28;20067;-64
2021/05/11 15:33:04;;;;;;;2.85;2.40;;;13.70;48.60;;;;;;5100925;28;20427;-64
2021/05/11 15:35:58;;;;;;;2.38;2.17;;;13.60;51.00;;;;;;5099125;28;20044;-63
2021/05/11 15:38:46;;;;;;;2.45;2.25;;;13.50;50.80;;;;;;5098304;28;20070;-64
2021/05/11 15:41:35;;;;;;;5.20;2.50;;;13.50;52.80;;;;;;5097443;28;20128;-63
2021/05/11 15:44:22;;;;;;;4.18;2.92;;;13.30;51.90;;;;;;5099336;28;20056;-63
2021/05/11 15:47:11;;;;;;;2.80;2.25;;;13.30;53.90;;;;;;5095897;28;20036;-64
2021/05/11 15:49:59;;;;;;;2.58;2.22;;;13.20;53.50;;;;;;5097708;28;20052;-63
2021/05/11 15:52:47;;;;;;;5.43;2.38;;;13.20;55.50;;;;;;5103164;28;20051;-63
2021/05/11 15:55:38;;;;;;;2.20;2.00;;;13.30;56.90;;;;;;5101072;28;20129;-65
2021/05/11 15:58:26;;;;;;;2.50;2.28;;;13.10;54.80;;;;;;5092715;28;20059;-64
2021/05/11 16:01:14;;;;;;;2.10;1.90;;;13.20;57.60;;;;;;5098745;28;20580;-63
2021/05/11 16:04:03;;;;;;;3.40;2.28;;;13.20;57.50;;;;;;5097570;28;20048;-64
2021/05/11 16:06:51;;;;;;;3.70;2.13;;;13.10;57.30;;;;;;5100181;28;20043;-64
2021/05/11 16:09:42;;;;;;;2.42;2.20;;;13.20;55.90;;;;;;5097169;28;20508;-64
2021/05/11 16:12:31;;;;;;;2.95;1.90;;;13.10;56.30;;;;;;5098718;28;20050;-63
2021/05/11 16:15:19;;;;;;;4.07;2.35;;;13.20;56.30;;;;;;5098633;28;20044;-64
2021/05/11 16:18:07;;;;;;;3.58;2.28;;;13.10;56.20;;;;;;5100246;28;20492;-64
2021/05/11 16:20:56;;;;;;;3.60;3.30;;;13.20;58.40;;;;;;5100050;28;20051;-65
2021/05/11 16:23:46;;;;;;;3.70;3.40;;;13.20;58.80;;;;;;5099953;28;20267;-64
2021/05/11 16:26:35;;;;;;;4.07;3.67;;;13.00;58.40;;;;;;5095224;27;20483;-64
2021/05/11 16:29:25;;;;;;;2.88;2.60;;;13.10;60.20;;;;;;5095215;28;20051;-62
2021/05/11 16:32:13;;;;;;;2.47;2.00;;;13.10;60.20;;;;;;5105164;28;20119;-63
2021/05/11 16:35:01;;;;;;;2.50;2.30;;;13.00;59.10;;;;;;5099551;28;20108;-64
2021/05/11 16:37:50;;;;;;;2.83;2.10;;;13.10;59.30;;;;;;5099875;28;20501;-63
2021/05/11 16:40:38;;;;;;;2.63;1.80;;;13.10;59.90;;;;;;5110332;27;20047;-63
2021/05/11 16:43:26;;;;;;;3.08;2.13;;;12.90;58.30;;;;;;5100334;28;20043;-63
2021/05/11 16:46:13;;;;;;;5.78;1.80;;;12.90;60.10;;;;;;5097245;28;20528;-63
2021/05/11 16:49:03;;;;;;;3.97;2.17;;;13.00;60.10;;;;;;5098396;28;20035;-63
2021/05/11 16:51:51;;;;;;;3.28;1.67;;;12.90;60.00;;;;;;5101125;28;20055;-64
2021/05/11 16:54:40;;;;;;;6.25;2.00;;;12.80;60.70;;;;;;5099719;28;20134;-63
2021/05/11 16:57:28;;;;;;;5.57;2.95;;;12.80;61.60;;;;;;5093764;28;20058;-64
2021/05/11 17:00:21;;;;;;;5.72;2.90;;;13.00;64.30;;;;;;5101243;28;20193;-63
2021/05/11 17:03:09;;;;;;;4.03;2.92;;;12.90;63.40;;;;;;5098747;28;20152;-62
2021/05/11 17:05:57;;;;;;;3.50;3.10;;;12.90;64.10;;;;;;5098877;28;20044;-64
2021/05/11 17:08:45;;;;;;;4.78;3.30;;;13.00;64.40;;;;;;5100678;28;20038;-65
2021/05/11 17:11:35;;;;;;;5.47;3.63;;;13.10;64.60;;;;;;5102034;28;20050;-65
2021/05/11 17:14:25;;;;;;;4.65;3.80;;;13.00;64.30;;;;;;5099438;28;20439;-65
2021/05/11 17:17:12;;;;;;;5.00;3.05;;;13.00;64.40;;;;;;5096076;28;20051;-64
2021/05/11 17:20:01;;;;;;;5.13;3.97;;;13.00;65.00;;;;;;5092828;28;20047;-64
2021/05/11 17:22:50;;;;;;;4.50;3.03;;;12.80;62.40;;;;;;5093647;28;20055;-65
2021/05/11 17:25:42;;;;;;;3.63;2.00;;;12.90;64.20;;;;;;5094450;28;20119;-64
2021/05/11 17:28:34;;;;;;;3.35;2.38;;;12.90;63.00;;;;;;5098379;28;20390;-64
2021/05/11 17:31:23;;;;;;;3.45;2.35;;;13.00;64.00;;;;;;5094699;28;20036;-65
2021/05/11 17:34:17;;;;;;;3.20;2.00;;;13.00;64.20;;;;;;5099710;28;20051;-65
2021/05/11 17:37:06;;;;;;;3.33;1.75;;;12.80;63.20;;;;;;5094071;28;20122;-66
2021/05/11 17:39:54;;;;;;;4.50;1.85;;;12.70;61.60;;;;;;5094106;28;20056;-65
2021/05/11 17:42:43;;;;;;;2.25;2.05;;;12.80;64.10;;;;;;5096762;28;20051;-65